Eagle San Antonio — 9V9330 — position and weather

sailwx.info

Track history (hours):
 
Tides and Currents Weather Stations Pressure Air Temp Water Temp Dewpoint Dewpoint Depression Visibility Wind Speed Wind Dir Waves Ship Positions

Eagle San Antonio

Last reported at 2014-Oct-06 01:07 UTC. Time now 2014-Oct-22 15:36 UTC.
Position N 50°16' W 001°23'.
Warning: this ship's position is 16 days out of date.

Length 274 m; draft 9.3 m.

Type: Tanker. MMSI: 566453000.

Date/timePositionNaut miles runAvg speedWind from/ knotsBaromVisibWave heightAir tempDewpointWater temp
2014-Oct-06 01:07N 50°16' W 001°23'2415.4
2014-Oct-05 23:33N 50°22' W 000°46'1615.8
2014-Oct-05 22:33N 50°26' W 000°23'1515.2
2014-Oct-05 21:33N 50°30' E 000°00'1414.4
2014-Oct-05 20:33N 50°34' E 000°22'1313.4
2014-Oct-05 19:33N 50°39' E 000°42'1313.3
2014-Oct-05 18:33N 50°46' E 000°59'1413.7
2014-Oct-05 17:33N 50°54' E 001°17'1515.0
2014-Oct-05 16:34N 51°05' E 001°33'1615.8
2014-Oct-05 15:34N 51°17' E 001°49'1515.1
2014-Oct-05 14:34N 51°30' E 002°03'1413.6
2014-Oct-05 13:34N 51°41' E 002°15'131 9.2
2014-Oct-04 23:20N 53°41' E 000°48'1114.2
2014-Oct-04 22:33N 53°40' E 000°29'1110.9
2014-Oct-04 21:34N 53°33' E 000°15'1313.2
2014-Oct-04 20:33N 53°37' W 000°07'2 2.0
2014-Oct-04 19:31N 53°38' W 000°10'0 0.0
2014-Oct-04 18:28N 53°38' W 000°10'0 0.0
2014-Oct-04 17:31N 53°38' W 000°10'0 0.0
2014-Oct-04 16:28N 53°38' W 000°10'0 0.0
2014-Oct-04 15:31N 53°38' W 000°10'0 0.0
2014-Oct-04 14:31N 53°38' W 000°10'0 0.0
2014-Oct-04 13:28N 53°38' W 000°10'0 0.0
2014-Oct-04 12:25N 53°38' W 000°10'0 0.0
2014-Oct-04 11:25N 53°38' W 000°10'0 0.0
2014-Oct-04 10:32N 53°38' W 000°10'0 0.0
2014-Oct-04 09:31N 53°38' W 000°10'0 0.0
2014-Oct-04 08:25N 53°38' W 000°10'0 0.0
2014-Oct-04 07:31N 53°38' W 000°10'0 0.0
2014-Oct-04 06:28N 53°38' W 000°10'0 0.0
2014-Oct-04 05:25N 53°38' W 000°10'0 0.0
2014-Oct-04 04:31N 53°38' W 000°10'0 0.0
2014-Oct-04 03:31N 53°38' W 000°10'0 0.0
2014-Oct-04 02:28N 53°38' W 000°10'0 0.0
2014-Oct-04 01:31N 53°38' W 000°10'0 0.0
2014-Oct-04 00:31N 53°38' W 000°10'0 0.0
2014-Oct-03 23:28N 53°38' W 000°10'0 0.0
2014-Oct-03 22:31N 53°38' W 000°10'0 0.0
2014-Oct-03 21:31N 53°38' W 000°10'0 0.0
2014-Oct-03 20:31N 53°38' W 000°10'0 0.0
2014-Oct-03 19:28N 53°38' W 000°10'0 0.0
2014-Oct-03 18:25N 53°38' W 000°10'0 0.0
2014-Oct-03 17:25N 53°38' W 000°10'0 0.0
2014-Oct-03 16:31N 53°38' W 000°10'0 0.0
2014-Oct-03 15:28N 53°38' W 000°10'0 0.0
2014-Oct-03 14:31N 53°38' W 000°10'0 0.0
2014-Oct-03 13:33N 53°38' W 000°10'2 1.5
2014-Oct-03 12:33N 53°37' W 000°08'7 7.2
2014-Oct-03 11:33N 53°36' E 000°04'8 8.1
2014-Oct-03 10:33N 53°35' E 000°18'5 5.4
2014-Oct-03 09:34N 53°40' E 000°23'3 3.1
2014-Oct-03 08:33N 53°38' E 000°28'2 1.9
2014-Oct-03 07:33N 53°37' E 000°26'0 0.0
2014-Oct-03 06:27N 53°37' E 000°26'0 0.0
2014-Oct-03 05:33N 53°37' E 000°25'0 0.0
2014-Oct-03 04:33N 53°37' E 000°26'0 0.0
2014-Oct-03 03:33N 53°37' E 000°26'0 0.0
2014-Oct-03 02:33N 53°37' E 000°26'0 0.0
2014-Oct-03 01:33N 53°37' E 000°26'0 0.1
2014-Oct-03 00:33N 53°37' E 000°26'0 0.2
2014-Oct-02 23:33N 53°36' E 000°26'0 0.0
2014-Oct-02 22:18N 53°36' E 000°26'0 0.1
2014-Oct-02 21:33N 53°36' E 000°26'0 0.1
2014-Oct-02 20:27N 53°36' E 000°25'0 0.1
2014-Oct-02 19:30N 53°37' E 000°25'0 0.0
2014-Oct-02 18:34N 53°37' E 000°25'0 0.0
2014-Oct-02 17:30N 53°37' E 000°25'0 0.0
2014-Oct-02 16:34N 53°37' E 000°25'0 0.0
2014-Oct-02 15:21N 53°37' E 000°25'0 0.0
2014-Oct-02 14:33N 53°37' E 000°25'0 0.0
2014-Oct-02 13:27N 53°37' E 000°25'0 0.3
2014-Oct-02 12:33N 53°36' E 000°25'0 0.1
2014-Oct-02 11:24N 53°36' E 000°26'0 0.0
2014-Oct-02 10:24N 53°36' E 000°26'0 0.0
2014-Oct-02 09:33N 53°36' E 000°26'0 0.0
2014-Oct-02 08:33N 53°36' E 000°26'0 0.0
2014-Oct-02 07:24N 53°36' E 000°25'0 0.1
2014-Oct-02 06:33N 53°36' E 000°25'1 1.3
2014-Oct-02 05:33N 53°37' E 000°27'6 6.2
2014-Oct-02 04:33N 53°40' E 000°36'1110.3
2014-Oct-02 03:31N 53°41' E 000°54'1010.0
2014-Oct-02 02:29N 53°45' E 001°10'1210.1
2014-Oct-02 01:15N 53°49' E 001°30'127 8.0
2014-Oct-01 09:15N 51°48' E 002°36'912.8
2014-Oct-01 08:33N 51°40' E 002°29'1313.1
2014-Oct-01 07:32N 51°30' E 002°15'1313.4
2014-Oct-01 06:33N 51°18' E 002°07'1313.4
2014-Oct-01 05:33N 51°09' E 001°50'1514.7
2014-Oct-01 04:33N 50°59' E 001°34'1614.7
2014-Oct-01 03:29N 50°45' E 001°22'1414.3
2014-Oct-01 02:32N 50°35' E 001°08'1414.1
2014-Oct-01 01:33N 50°28' E 000°48'1515.5
2014-Oct-01 00:33N 50°25' E 000°24'27012.0
2014-Sep-30 02:06N 47°60' W 005°23'813.7
2014-Sep-30 01:33N 47°54' W 005°15'1313.5
2014-Sep-30 00:33N 47°46' W 004°59'8113.5
2014-Sep-29 18:33N 47°07' W 003°14'1712.8
2014-Sep-29 17:14N 47°03' W 002°50'34 2.1
2014-Sep-29 01:07N 47°18' W 002°06'0 0.0
2014-Sep-29 00:25N 47°18' W 002°06'0 0.0
2014-Sep-28 23:28N 47°18' W 002°06'0 0.0
2014-Sep-28 22:31N 47°18' W 002°06'0 0.0
2014-Sep-28 19:28N 47°18' W 002°06'1 0.1
2014-Sep-28 05:33N 47°18' W 002°07'17 7.9
2014-Sep-28 03:23N 47°08' W 002°27'0 0.0
2014-Sep-27 19:27N 47°08' W 002°28'0 0.1
2014-Sep-27 18:33N 47°08' W 002°27'0 0.0
2014-Sep-27 09:06N 47°08' W 002°28'0 0.0
2014-Sep-27 08:33N 47°08' W 002°28'0 0.0
2014-Sep-27 07:30N 47°08' W 002°28'0 0.1
2014-Sep-27 06:33N 47°08' W 002°27'0 0.1
2014-Sep-27 05:33N 47°08' W 002°27'0 0.1
2014-Sep-27 04:24N 47°08' W 002°27'0 0.0
2014-Sep-27 03:21N 47°08' W 002°27'0 0.0
2014-Sep-27 02:24N 47°08' W 002°27'0 0.1
2014-Sep-27 01:33N 47°08' W 002°27'0 0.1
2014-Sep-26 23:30N 47°08' W 002°28'0 0.1
2014-Sep-26 22:15N 47°08' W 002°28'0 0.0
2014-Sep-26 21:33N 47°08' W 002°28'0 0.0
2014-Sep-26 20:27N 47°08' W 002°28'0 0.0
2014-Sep-26 19:33N 47°08' W 002°28'0 0.1
2014-Sep-26 18:33N 47°08' W 002°27'0 0.1
2014-Sep-26 17:33N 47°08' W 002°27'0 0.1
2014-Sep-26 14:21N 47°08' W 002°27'0 0.1
2014-Sep-26 11:03N 47°08' W 002°28'0 0.0
2014-Sep-26 08:30N 47°08' W 002°28'0 0.0
2014-Sep-26 07:33N 47°08' W 002°28'0 0.0
2014-Sep-26 06:33N 47°08' W 002°28'0 0.1
2014-Sep-26 05:33N 47°08' W 002°27'0 0.1
2014-Sep-26 04:18N 47°08' W 002°27'0 0.1
2014-Sep-26 02:09N 47°08' W 002°27'0 0.0
2014-Sep-26 01:33N 47°08' W 002°27'  
Track history (hours):
 
Tides and Currents Weather Stations Pressure Air Temp Water Temp Dewpoint Dewpoint Depression Visibility Wind Speed Wind Dir Waves Ship Positions

Eagle San Antonio

Last reported at 2014-Oct-06 01:07 UTC. Time now 2014-Oct-22 15:36 UTC.
Position N 50°16' W 001°23'.
Warning: this ship's position is 16 days out of date.

Length 274 m; draft 9.3 m.

Type: Tanker. MMSI: 566453000.

Date/timePositionNaut miles runAvg speedWind from/ knotsBaromVisibWave heightAir tempDewpointWater temp
2014-Oct-06 01:07N 50°16' W 001°23'2415.4
2014-Oct-05 23:33N 50°22' W 000°46'1615.8
2014-Oct-05 22:33N 50°26' W 000°23'1515.2
2014-Oct-05 21:33N 50°30' E 000°00'1414.4
2014-Oct-05 20:33N 50°34' E 000°22'1313.4
2014-Oct-05 19:33N 50°39' E 000°42'1313.3
2014-Oct-05 18:33N 50°46' E 000°59'1413.7
2014-Oct-05 17:33N 50°54' E 001°17'1515.0
2014-Oct-05 16:34N 51°05' E 001°33'1615.8
2014-Oct-05 15:34N 51°17' E 001°49'1515.1
2014-Oct-05 14:34N 51°30' E 002°03'1413.6
2014-Oct-05 13:34N 51°41' E 002°15'131 9.2
2014-Oct-04 23:20N 53°41' E 000°48'1114.2
2014-Oct-04 22:33N 53°40' E 000°29'1110.9
2014-Oct-04 21:34N 53°33' E 000°15'1313.2
2014-Oct-04 20:33N 53°37' W 000°07'2 2.0
2014-Oct-04 19:31N 53°38' W 000°10'0 0.0
2014-Oct-04 18:28N 53°38' W 000°10'0 0.0
2014-Oct-04 17:31N 53°38' W 000°10'0 0.0
2014-Oct-04 16:28N 53°38' W 000°10'0 0.0
2014-Oct-04 15:31N 53°38' W 000°10'0 0.0
2014-Oct-04 14:31N 53°38' W 000°10'0 0.0
2014-Oct-04 13:28N 53°38' W 000°10'0 0.0
2014-Oct-04 12:25N 53°38' W 000°10'0 0.0
2014-Oct-04 11:25N 53°38' W 000°10'0 0.0
2014-Oct-04 10:32N 53°38' W 000°10'0 0.0
2014-Oct-04 09:31N 53°38' W 000°10'0 0.0
2014-Oct-04 08:25N 53°38' W 000°10'0 0.0
2014-Oct-04 07:31N 53°38' W 000°10'0 0.0
2014-Oct-04 06:28N 53°38' W 000°10'0 0.0
2014-Oct-04 05:25N 53°38' W 000°10'0 0.0
2014-Oct-04 04:31N 53°38' W 000°10'0 0.0
2014-Oct-04 03:31N 53°38' W 000°10'0 0.0
2014-Oct-04 02:28N 53°38' W 000°10'0 0.0
2014-Oct-04 01:31N 53°38' W 000°10'0 0.0
2014-Oct-04 00:31N 53°38' W 000°10'0 0.0
2014-Oct-03 23:28N 53°38' W 000°10'0 0.0
2014-Oct-03 22:31N 53°38' W 000°10'0 0.0
2014-Oct-03 21:31N 53°38' W 000°10'0 0.0
2014-Oct-03 20:31N 53°38' W 000°10'0 0.0
2014-Oct-03 19:28N 53°38' W 000°10'0 0.0
2014-Oct-03 18:25N 53°38' W 000°10'0 0.0
2014-Oct-03 17:25N 53°38' W 000°10'0 0.0
2014-Oct-03 16:31N 53°38' W 000°10'0 0.0
2014-Oct-03 15:28N 53°38' W 000°10'0 0.0
2014-Oct-03 14:31N 53°38' W 000°10'0 0.0
2014-Oct-03 13:33N 53°38' W 000°10'2 1.5
2014-Oct-03 12:33N 53°37' W 000°08'7 7.2
2014-Oct-03 11:33N 53°36' E 000°04'8 8.1
2014-Oct-03 10:33N 53°35' E 000°18'5 5.4
2014-Oct-03 09:34N 53°40' E 000°23'3 3.1
2014-Oct-03 08:33N 53°38' E 000°28'2 1.9
2014-Oct-03 07:33N 53°37' E 000°26'0 0.0
2014-Oct-03 06:27N 53°37' E 000°26'0 0.0
2014-Oct-03 05:33N 53°37' E 000°25'0 0.0
2014-Oct-03 04:33N 53°37' E 000°26'0 0.0
2014-Oct-03 03:33N 53°37' E 000°26'0 0.0
2014-Oct-03 02:33N 53°37' E 000°26'0 0.0
2014-Oct-03 01:33N 53°37' E 000°26'0 0.1
2014-Oct-03 00:33N 53°37' E 000°26'0 0.2
2014-Oct-02 23:33N 53°36' E 000°26'0 0.0
2014-Oct-02 22:18N 53°36' E 000°26'0 0.1
2014-Oct-02 21:33N 53°36' E 000°26'0 0.1
2014-Oct-02 20:27N 53°36' E 000°25'0 0.1
2014-Oct-02 19:30N 53°37' E 000°25'0 0.0
2014-Oct-02 18:34N 53°37' E 000°25'0 0.0
2014-Oct-02 17:30N 53°37' E 000°25'0 0.0
2014-Oct-02 16:34N 53°37' E 000°25'0 0.0
2014-Oct-02 15:21N 53°37' E 000°25'0 0.0
2014-Oct-02 14:33N 53°37' E 000°25'0 0.0
2014-Oct-02 13:27N 53°37' E 000°25'0 0.3
2014-Oct-02 12:33N 53°36' E 000°25'0 0.1
2014-Oct-02 11:24N 53°36' E 000°26'0 0.0
2014-Oct-02 10:24N 53°36' E 000°26'0 0.0
2014-Oct-02 09:33N 53°36' E 000°26'0 0.0
2014-Oct-02 08:33N 53°36' E 000°26'0 0.0
2014-Oct-02 07:24N 53°36' E 000°25'0 0.1
2014-Oct-02 06:33N 53°36' E 000°25'1 1.3
2014-Oct-02 05:33N 53°37' E 000°27'6 6.2
2014-Oct-02 04:33N 53°40' E 000°36'1110.3
2014-Oct-02 03:31N 53°41' E 000°54'1010.0
2014-Oct-02 02:29N 53°45' E 001°10'1210.1
2014-Oct-02 01:15N 53°49' E 001°30'127 8.0
2014-Oct-01 09:15N 51°48' E 002°36'912.8
2014-Oct-01 08:33N 51°40' E 002°29'1313.1
2014-Oct-01 07:32N 51°30' E 002°15'1313.4
2014-Oct-01 06:33N 51°18' E 002°07'1313.4
2014-Oct-01 05:33N 51°09' E 001°50'1514.7
2014-Oct-01 04:33N 50°59' E 001°34'1614.7
2014-Oct-01 03:29N 50°45' E 001°22'1414.3
2014-Oct-01 02:32N 50°35' E 001°08'1414.1
2014-Oct-01 01:33N 50°28' E 000°48'1515.5
2014-Oct-01 00:33N 50°25' E 000°24'27012.0
2014-Sep-30 02:06N 47°60' W 005°23'813.7
2014-Sep-30 01:33N 47°54' W 005°15'1313.5
2014-Sep-30 00:33N 47°46' W 004°59'8113.5
2014-Sep-29 18:33N 47°07' W 003°14'1712.8
2014-Sep-29 17:14N 47°03' W 002°50'34 2.1
2014-Sep-29 01:07N 47°18' W 002°06'0 0.0
2014-Sep-29 00:25N 47°18' W 002°06'0 0.0
2014-Sep-28 23:28N 47°18' W 002°06'0 0.0
2014-Sep-28 22:31N 47°18' W 002°06'0 0.0
2014-Sep-28 19:28N 47°18' W 002°06'1 0.1
2014-Sep-28 05:33N 47°18' W 002°07'17 7.9
2014-Sep-28 03:23N 47°08' W 002°27'0 0.0
2014-Sep-27 19:27N 47°08' W 002°28'0 0.1
2014-Sep-27 18:33N 47°08' W 002°27'0 0.0
2014-Sep-27 09:06N 47°08' W 002°28'0 0.0
2014-Sep-27 08:33N 47°08' W 002°28'0 0.0
2014-Sep-27 07:30N 47°08' W 002°28'0 0.1
2014-Sep-27 06:33N 47°08' W 002°27'0 0.1
2014-Sep-27 05:33N 47°08' W 002°27'0 0.1
2014-Sep-27 04:24N 47°08' W 002°27'0 0.0
2014-Sep-27 03:21N 47°08' W 002°27'0 0.0
2014-Sep-27 02:24N 47°08' W 002°27'0 0.1
2014-Sep-27 01:33N 47°08' W 002°27'0 0.1
2014-Sep-26 23:30N 47°08' W 002°28'0 0.1
2014-Sep-26 22:15N 47°08' W 002°28'0 0.0
2014-Sep-26 21:33N 47°08' W 002°28'0 0.0
2014-Sep-26 20:27N 47°08' W 002°28'0 0.0
2014-Sep-26 19:33N 47°08' W 002°28'0 0.1
2014-Sep-26 18:33N 47°08' W 002°27'0 0.1
2014-Sep-26 17:33N 47°08' W 002°27'0 0.1
2014-Sep-26 14:21N 47°08' W 002°27'0 0.1
2014-Sep-26 11:03N 47°08' W 002°28'0 0.0
2014-Sep-26 08:30N 47°08' W 002°28'0 0.0
2014-Sep-26 07:33N 47°08' W 002°28'0 0.0
2014-Sep-26 06:33N 47°08' W 002°28'0 0.1
2014-Sep-26 05:33N 47°08' W 002°27'0 0.1
2014-Sep-26 04:18N 47°08' W 002°27'0 0.1
2014-Sep-26 02:09N 47°08' W 002°27'0 0.0
2014-Sep-26 01:33N 47°08' W 002°27'  

Dump ship's entire track history